createdAt,value
2023-03-29T00:01:41.989Z,83.04
2023-03-29T00:04:10.186Z,82.20
2023-03-29T00:06:38.409Z,82.64
2023-03-29T00:09:06.081Z,82.53
2023-03-29T00:11:32.982Z,83.05
2023-03-29T00:13:59.418Z,82.95
2023-03-29T00:16:26.060Z,82.79
2023-03-29T00:18:52.584Z,82.22
2023-03-29T00:21:19.041Z,82.11
2023-03-29T00:23:45.714Z,84.65
2023-03-29T00:26:12.457Z,83.84
2023-03-29T00:28:38.934Z,84.78
2023-03-29T00:31:14.012Z,85.42
2023-03-29T00:33:41.394Z,85.43
2023-03-29T00:36:09.037Z,84.78
2023-03-29T00:38:36.180Z,83.16
2023-03-29T00:41:04.565Z,82.45
2023-03-29T00:43:31.290Z,83.05
2023-03-29T00:45:57.810Z,81.97
2023-03-29T00:48:28.944Z,81.30
2023-03-29T00:51:03.474Z,82.46
2023-03-29T00:53:33.410Z,83.70
2023-03-29T00:56:06.320Z,81.95
2023-03-29T00:58:40.380Z,82.24
2023-03-29T01:01:10.926Z,81.32
2023-03-29T01:03:46.379Z,80.63
2023-03-29T01:06:16.029Z,81.26
2023-03-29T01:08:53.579Z,80.52
2023-03-29T01:11:32.375Z,80.89
2023-03-29T01:14:03.834Z,80.75
2023-03-29T01:16:33.048Z,80.39
2023-03-29T01:19:00.401Z,81.22
2023-03-29T01:21:33.070Z,80.85
2023-03-29T01:24:09.227Z,80.25
2023-03-29T01:26:59.561Z,79.72
2023-03-29T01:29:47.809Z,78.77
2023-03-29T01:32:23.331Z,78.78
2023-03-29T01:34:57.637Z,78.75
2023-03-29T01:37:34.217Z,78.71
2023-03-29T01:40:01.221Z,78.67
2023-03-29T01:42:36.876Z,78.79
2023-03-29T01:45:12.625Z,77.87
2023-03-29T01:48:08.330Z,78.19
2023-03-29T01:50:54.297Z,79.33
2023-03-29T01:53:24.716Z,79.12
2023-03-29T01:55:58.579Z,79.69
2023-03-29T01:58:30.000Z,80.46
2023-03-29T02:00:58.088Z,81.33
2023-03-29T02:03:27.781Z,80.15
2023-03-29T02:05:56.945Z,79.46
2023-03-29T02:08:24.775Z,79.46
2023-03-29T02:10:51.909Z,79.29
2023-03-29T02:13:19.708Z,80.22
2023-03-29T02:15:47.831Z,80.05
2023-03-29T02:18:18.936Z,81.15
2023-03-29T02:20:48.826Z,80.78
2023-03-29T02:23:34.294Z,82.14
2023-03-29T02:26:03.827Z,80.96
2023-03-29T02:28:31.713Z,81.82
2023-03-29T02:31:05.202Z,81.18
2023-03-29T02:33:45.829Z,81.26
2023-03-29T02:36:24.852Z,80.42
2023-03-29T02:38:52.736Z,80.69
2023-03-29T02:41:19.933Z,82.66
2023-03-29T02:43:47.633Z,80.56
2023-03-29T02:46:15.457Z,80.81
2023-03-29T02:48:46.274Z,80.59
2023-03-29T02:51:17.421Z,82.64
2023-03-29T02:53:59.284Z,82.72
2023-03-29T02:56:25.824Z,83.02
2023-03-29T02:58:52.279Z,81.19
2023-03-29T03:01:20.537Z,82.28
2023-03-29T03:03:48.001Z,83.63
2023-03-29T03:06:15.219Z,81.38
2023-03-29T03:08:42.055Z,80.21
2023-03-29T03:11:08.565Z,81.08
2023-03-29T03:13:34.994Z,81.48
2023-03-29T03:16:01.525Z,81.36
2023-03-29T03:18:28.679Z,80.63
2023-03-29T03:20:59.289Z,80.53
2023-03-29T03:23:26.027Z,82.65
2023-03-29T03:25:52.855Z,82.29
2023-03-29T03:28:20.530Z,81.94
2023-03-29T03:30:46.981Z,80.31
2023-03-29T03:33:13.421Z,80.53
2023-03-29T03:35:39.914Z,80.16
2023-03-29T03:38:07.270Z,80.11
2023-03-29T03:40:34.281Z,79.17
2023-03-29T03:43:03.444Z,79.32
2023-03-29T03:45:30.078Z,79.12
2023-03-29T03:47:56.587Z,79.72
2023-03-29T03:50:24.330Z,81.33
2023-03-29T03:52:50.891Z,81.49
2023-03-29T03:55:17.716Z,82.71
2023-03-29T03:57:44.157Z,81.67
2023-03-29T04:00:18.618Z,81.04
2023-03-29T04:02:46.584Z,84.45
2023-03-29T04:05:13.118Z,85.08
2023-03-29T04:07:40.347Z,86.02
2023-03-29T04:10:09.016Z,84.53
2023-03-29T04:12:36.110Z,83.50
2023-03-29T04:15:03.585Z,84.12
2023-03-29T04:17:30.036Z,83.82
2023-03-29T04:19:57.483Z,83.06
2023-03-29T04:22:27.727Z,82.61
2023-03-29T04:24:55.333Z,82.11
2023-03-29T04:27:21.769Z,81.51
2023-03-29T04:29:48.904Z,81.99
2023-03-29T04:32:15.356Z,81.32
2023-03-29T04:34:41.761Z,82.15
2023-03-29T04:37:10.502Z,82.45
2023-03-29T04:39:37.653Z,82.63
2023-03-29T04:42:05.159Z,82.38
2023-03-29T04:44:34.944Z,82.66
2023-03-29T04:47:01.573Z,83.24
2023-03-29T04:49:31.119Z,82.81
2023-03-29T04:51:57.583Z,82.64
2023-03-29T04:54:24.120Z,82.96
2023-03-29T04:56:52.120Z,82.41
2023-03-29T04:59:18.810Z,83.12
2023-03-29T05:01:45.761Z,83.85
2023-03-29T05:04:23.466Z,84.61
2023-03-29T05:06:50.330Z,84.35
2023-03-29T05:09:17.063Z,85.04
2023-03-29T05:11:43.820Z,85.13
2023-03-29T05:14:11.294Z,85.74
2023-03-29T05:16:38.100Z,85.68
2023-03-29T05:19:04.752Z,85.80
2023-03-29T05:21:31.262Z,86.42
2023-03-29T05:23:58.078Z,86.55
2023-03-29T05:26:24.527Z,86.79
2023-03-29T05:28:51.498Z,86.68
2023-03-29T05:31:18.457Z,86.45
2023-03-29T05:33:45.068Z,85.94
2023-03-29T05:36:13.780Z,85.07
2023-03-29T05:38:41.423Z,84.30
2023-03-29T05:41:08.678Z,84.63
2023-03-29T05:43:35.108Z,85.36
2023-03-29T05:46:01.634Z,85.23
2023-03-29T05:48:28.804Z,84.21
2023-03-29T05:50:56.364Z,83.52
2023-03-29T05:53:25.007Z,82.84
2023-03-29T05:55:51.787Z,83.08
2023-03-29T05:58:20.191Z,82.77
2023-03-29T06:00:49.467Z,82.75
2023-03-29T06:03:21.243Z,82.36
2023-03-29T06:05:49.852Z,82.46
2023-03-29T06:08:16.791Z,82.36
2023-03-29T06:10:43.684Z,82.08
2023-03-29T06:13:10.834Z,81.96
2023-03-29T06:15:37.373Z,81.49
2023-03-29T06:18:04.565Z,81.66
2023-03-29T06:20:31.202Z,81.62
2023-03-29T06:22:58.399Z,81.79
2023-03-29T06:25:24.985Z,81.10
2023-03-29T06:27:52.193Z,81.31
2023-03-29T06:30:19.269Z,81.17
2023-03-29T06:32:46.167Z,81.17
2023-03-29T06:35:12.633Z,81.47
2023-03-29T06:37:41.149Z,80.98
2023-03-29T06:40:09.393Z,80.86
2023-03-29T06:42:35.838Z,81.13
2023-03-29T06:45:02.588Z,82.16
2023-03-29T06:47:31.384Z,82.02
2023-03-29T06:49:58.016Z,82.18
2023-03-29T06:52:24.420Z,81.79
2023-03-29T06:54:50.974Z,81.25
2023-03-29T06:57:17.751Z,82.08
2023-03-29T06:59:44.345Z,81.30
2023-03-29T07:02:12.544Z,80.77
2023-03-29T07:04:39.588Z,81.01
2023-03-29T07:07:07.691Z,81.40
2023-03-29T07:09:35.948Z,81.05
2023-03-29T07:12:02.423Z,81.98
2023-03-29T07:14:30.817Z,81.28
2023-03-29T07:17:00.724Z,82.20
2023-03-29T07:19:30.182Z,82.19
2023-03-29T07:21:56.995Z,81.51
2023-03-29T07:24:23.405Z,81.82
2023-03-29T07:27:03.181Z,81.69
2023-03-29T07:29:30.954Z,81.13
2023-03-29T07:31:57.492Z,81.95
2023-03-29T07:34:24.342Z,82.78
2023-03-29T07:36:51.514Z,84.74
2023-03-29T07:39:19.201Z,83.71
2023-03-29T07:41:45.958Z,83.46
2023-03-29T07:44:12.383Z,84.56
2023-03-29T07:46:39.188Z,84.49
2023-03-29T07:49:07.384Z,84.42
2023-03-29T07:51:33.886Z,83.62
2023-03-29T07:54:00.319Z,84.04
2023-03-29T07:56:26.981Z,83.12
2023-03-29T07:58:53.405Z,83.23
2023-03-29T08:01:20.878Z,82.68
2023-03-29T08:03:47.987Z,82.69
2023-03-29T08:06:16.093Z,82.57
2023-03-29T08:08:42.546Z,81.46
2023-03-29T08:11:10.071Z,81.67
2023-03-29T08:13:36.892Z,80.90
2023-03-29T08:16:03.354Z,81.22
2023-03-29T08:18:31.109Z,81.21
2023-03-29T08:20:58.675Z,80.69
2023-03-29T08:23:25.197Z,81.09
2023-03-29T08:25:52.156Z,80.32
2023-03-29T08:28:18.574Z,80.98
2023-03-29T08:30:45.578Z,79.98
2023-03-29T08:33:12.263Z,79.67
2023-03-29T08:35:38.756Z,79.85
2023-03-29T08:38:05.372Z,79.91
2023-03-29T08:40:31.946Z,79.57
2023-03-29T08:43:01.975Z,79.40
2023-03-29T08:45:35.484Z,79.12
2023-03-29T08:48:32.910Z,78.76
2023-03-29T08:51:10.108Z,78.09
2023-03-29T08:53:45.130Z,77.63
2023-03-29T08:56:16.766Z,76.97
2023-03-29T08:58:45.153Z,76.89
2023-03-29T09:01:11.870Z,77.28
2023-03-29T09:03:44.975Z,76.54
2023-03-29T09:06:13.907Z,76.75
2023-03-29T09:08:45.075Z,75.50
2023-03-29T09:11:23.792Z,75.73
2023-03-29T09:14:09.102Z,75.50
2023-03-29T09:16:55.259Z,74.97
2023-03-29T09:19:36.857Z,74.95
2023-03-29T09:22:16.074Z,75.26
2023-03-29T09:25:06.210Z,74.86
2023-03-29T09:27:51.029Z,74.72
2023-03-29T09:30:27.545Z,74.57
2023-03-29T09:33:09.139Z,75.44
2023-03-29T09:35:50.840Z,74.29
2023-03-29T09:38:18.604Z,75.14
2023-03-29T09:40:54.031Z,74.83
2023-03-29T09:43:31.440Z,74.28
2023-03-29T09:46:02.977Z,74.06
2023-03-29T09:48:34.778Z,74.03
2023-03-29T09:51:03.412Z,74.20
2023-03-29T09:53:30.378Z,74.32
2023-03-29T09:55:56.870Z,73.95
2023-03-29T09:58:27.494Z,74.50
2023-03-29T10:00:58.990Z,73.63
2023-03-29T10:03:28.416Z,74.38
2023-03-29T10:05:58.806Z,74.31
2023-03-29T10:08:38.637Z,74.08
2023-03-29T10:11:13.575Z,74.11
2023-03-29T10:13:54.916Z,74.56
2023-03-29T10:16:29.622Z,73.86
2023-03-29T10:18:56.504Z,73.71
2023-03-29T10:21:23.767Z,72.73
2023-03-29T10:23:58.222Z,72.90
2023-03-29T10:26:38.817Z,71.57
2023-03-29T10:29:08.242Z,71.63
2023-03-29T10:31:38.777Z,71.10
2023-03-29T10:34:06.921Z,70.49
2023-03-29T10:36:34.245Z,70.19
2023-03-29T10:39:05.560Z,69.24
2023-03-29T10:41:35.275Z,69.00
2023-03-29T10:44:02.575Z,68.75
2023-03-29T10:46:31.960Z,68.08
2023-03-29T10:49:05.978Z,67.81
2023-03-29T10:51:34.463Z,68.45
2023-03-29T10:54:02.276Z,68.98
2023-03-29T10:56:47.421Z,68.84
2023-03-29T10:59:24.160Z,68.21
2023-03-29T11:01:58.035Z,68.43
2023-03-29T11:04:46.661Z,68.41
2023-03-29T11:07:29.412Z,69.20
2023-03-29T11:10:14.645Z,69.06
2023-03-29T11:12:49.634Z,69.55
2023-03-29T11:15:34.220Z,69.33
2023-03-29T11:18:25.485Z,68.64
2023-03-29T11:21:12.473Z,68.28
2023-03-29T11:23:48.114Z,67.46
2023-03-29T11:26:22.483Z,67.33
2023-03-29T11:29:10.888Z,67.06
2023-03-29T11:32:18.933Z,66.98
2023-03-29T11:35:12.798Z,67.19
2023-03-29T11:38:07.201Z,66.99
2023-03-29T11:40:55.457Z,67.89
2023-03-29T11:43:37.619Z,68.48
2023-03-29T11:46:17.869Z,68.78
2023-03-29T11:48:55.518Z,68.64
2023-03-29T11:51:51.993Z,68.67
2023-03-29T11:54:28.576Z,68.71
2023-03-29T11:56:58.504Z,69.33
2023-03-29T11:59:32.619Z,69.45
2023-03-29T12:02:10.884Z,68.57
2023-03-29T12:04:46.361Z,68.68
2023-03-29T12:07:41.679Z,68.97
2023-03-29T12:10:21.178Z,69.01
2023-03-29T12:13:09.466Z,69.26
2023-03-29T12:15:45.560Z,68.08
2023-03-29T12:18:26.979Z,67.57
2023-03-29T12:21:00.550Z,66.94
2023-03-29T12:23:30.981Z,67.25
2023-03-29T12:26:17.581Z,66.38
2023-03-29T12:29:09.313Z,65.75
2023-03-29T12:31:38.710Z,66.48
2023-03-29T12:34:29.628Z,66.22
2023-03-29T12:37:05.634Z,65.58
2023-03-29T12:39:33.371Z,65.70
2023-03-29T12:42:17.608Z,64.99
2023-03-29T12:44:50.422Z,65.20
2023-03-29T12:47:21.407Z,64.68
2023-03-29T12:49:54.496Z,64.60
2023-03-29T12:52:27.127Z,65.06
2023-03-29T12:54:56.233Z,64.61
2023-03-29T12:57:37.708Z,64.71
2023-03-29T13:00:20.397Z,64.46
2023-03-29T13:03:03.330Z,64.47
2023-03-29T13:05:36.771Z,63.85
2023-03-29T13:08:26.221Z,64.19
2023-03-29T13:10:56.804Z,64.83
2023-03-29T13:13:50.324Z,65.42
2023-03-29T13:16:19.745Z,65.56
2023-03-29T13:19:01.787Z,65.28
2023-03-29T13:21:49.903Z,65.38
2023-03-29T13:24:39.130Z,65.85
2023-03-29T13:27:12.747Z,64.92
2023-03-29T13:29:55.733Z,65.07
2023-03-29T13:32:36.356Z,65.50
2023-03-29T13:35:41.635Z,65.23
2023-03-29T13:38:26.620Z,65.17
2023-03-29T13:40:53.096Z,65.33
2023-03-29T13:43:19.461Z,64.88
2023-03-29T13:46:16.581Z,65.25
2023-03-29T13:48:42.949Z,64.80
2023-03-29T13:51:18.563Z,64.59
2023-03-29T13:53:54.273Z,64.63
2023-03-29T13:56:34.097Z,64.91
2023-03-29T13:59:11.588Z,63.91
2023-03-29T14:01:48.350Z,64.24
2023-03-29T14:04:21.502Z,64.12
2023-03-29T14:06:53.079Z,64.19
2023-03-29T14:09:23.328Z,64.18
2023-03-29T14:11:51.037Z,64.48
2023-03-29T14:14:22.642Z,64.60
2023-03-29T14:16:49.425Z,64.76
2023-03-29T14:19:20.794Z,64.63
2023-03-29T14:21:51.184Z,64.32
2023-03-29T14:24:20.766Z,64.36
2023-03-29T14:26:47.807Z,63.91
2023-03-29T14:29:14.827Z,64.05
2023-03-29T14:31:42.580Z,63.96
2023-03-29T14:34:15.819Z,64.56
2023-03-29T14:36:45.363Z,64.01
2023-03-29T14:39:33.671Z,64.11
2023-03-29T14:42:00.511Z,64.04
2023-03-29T14:44:30.026Z,64.01
2023-03-29T14:46:56.941Z,63.43
2023-03-29T14:49:24.461Z,64.01
2023-03-29T14:51:52.382Z,64.15
2023-03-29T14:54:32.673Z,63.99
2023-03-29T14:57:00.076Z,64.07
2023-03-29T14:59:38.307Z,63.39
2023-03-29T15:02:21.675Z,63.59
2023-03-29T15:05:03.324Z,63.85
2023-03-29T15:07:31.430Z,64.38
2023-03-29T15:09:59.590Z,64.22
2023-03-29T15:12:30.210Z,63.61
2023-03-29T15:14:57.175Z,63.81
2023-03-29T15:17:50.103Z,64.29
2023-03-29T15:20:32.085Z,64.00
2023-03-29T15:23:01.413Z,64.61
2023-03-29T15:25:45.839Z,64.59
2023-03-29T15:28:34.188Z,64.10
2023-03-29T15:31:11.995Z,64.00
2023-03-29T15:33:41.016Z,64.52
2023-03-29T15:36:12.750Z,63.96
2023-03-29T15:38:44.720Z,64.12
2023-03-29T15:41:13.514Z,64.66
2023-03-29T15:43:41.207Z,64.50
2023-03-29T15:46:09.004Z,63.82
2023-03-29T15:48:35.497Z,64.35
2023-03-29T15:51:05.513Z,65.04
2023-03-29T15:53:33.249Z,64.72
2023-03-29T15:56:01.992Z,64.60
2023-03-29T15:58:31.653Z,64.36
2023-03-29T16:01:11.169Z,64.27
2023-03-29T16:03:38.892Z,63.85
2023-03-29T16:06:06.176Z,64.31
2023-03-29T16:08:32.688Z,63.31
2023-03-29T16:10:59.131Z,63.23
2023-03-29T16:13:25.562Z,64.06
2023-03-29T16:15:52.126Z,64.21
2023-03-29T16:18:18.524Z,63.27
2023-03-29T16:20:44.944Z,64.25
2023-03-29T16:23:12.011Z,64.28
2023-03-29T16:25:40.001Z,63.32
2023-03-29T16:28:08.418Z,63.55
2023-03-29T16:30:36.076Z,64.35
2023-03-29T16:33:08.374Z,64.24
2023-03-29T16:35:38.465Z,64.46
2023-03-29T16:38:05.951Z,64.12
2023-03-29T16:40:33.273Z,64.62
2023-03-29T16:43:00.183Z,64.87
2023-03-29T16:45:27.200Z,64.88
2023-03-29T16:47:54.480Z,64.84
2023-03-29T16:50:21.877Z,65.06
2023-03-29T16:52:49.176Z,64.93
2023-03-29T16:55:19.181Z,64.98
2023-03-29T16:57:47.209Z,64.96
2023-03-29T17:00:16.383Z,65.39
2023-03-29T17:02:43.979Z,65.05
2023-03-29T17:05:12.335Z,65.27
2023-03-29T17:07:39.363Z,65.52
2023-03-29T17:10:08.276Z,65.47
2023-03-29T17:12:35.143Z,66.16
2023-03-29T17:15:01.696Z,66.04
2023-03-29T17:17:28.236Z,65.74
2023-03-29T17:19:56.573Z,66.58
2023-03-29T17:22:24.297Z,66.39
2023-03-29T17:24:51.067Z,66.80
2023-03-29T17:27:18.262Z,66.71
2023-03-29T17:29:44.704Z,67.20
2023-03-29T17:32:11.181Z,67.82
2023-03-29T17:34:38.634Z,67.41
2023-03-29T17:37:05.270Z,67.80
2023-03-29T17:39:32.120Z,67.70
2023-03-29T17:41:58.589Z,68.17
2023-03-29T17:44:25.017Z,67.95
2023-03-29T17:46:51.526Z,68.58
2023-03-29T17:49:17.992Z,67.93
2023-03-29T17:51:44.444Z,69.11
2023-03-29T17:54:11.141Z,69.93
2023-03-29T17:56:37.834Z,69.86
2023-03-29T17:59:04.336Z,69.93
2023-03-29T18:01:30.915Z,70.73
2023-03-29T18:03:57.488Z,70.49
2023-03-29T18:06:24.000Z,70.27
2023-03-29T18:08:50.586Z,70.67
2023-03-29T18:11:22.352Z,70.18
2023-03-29T18:13:50.370Z,69.93
2023-03-29T18:16:17.777Z,69.84
2023-03-29T18:18:46.321Z,70.60
2023-03-29T18:21:16.838Z,70.02
2023-03-29T18:23:47.881Z,69.94
2023-03-29T18:26:16.085Z,70.72
2023-03-29T18:28:46.923Z,70.46
2023-03-29T18:31:13.956Z,70.32
2023-03-29T18:33:40.539Z,70.54
2023-03-29T18:36:10.804Z,72.13
2023-03-29T18:38:40.453Z,72.47
2023-03-29T18:41:08.581Z,73.30
2023-03-29T18:43:35.956Z,74.16
2023-03-29T18:46:03.201Z,74.63
2023-03-29T18:48:29.970Z,73.11
2023-03-29T18:50:57.780Z,73.31
2023-03-29T18:53:24.363Z,73.69
2023-03-29T18:55:50.918Z,75.55
2023-03-29T18:58:17.812Z,75.02
2023-03-29T19:00:44.710Z,75.31
2023-03-29T19:03:11.513Z,75.31
2023-03-29T19:05:39.256Z,73.61
2023-03-29T19:08:07.037Z,74.52
2023-03-29T19:10:38.212Z,75.06
2023-03-29T19:13:05.461Z,75.10
2023-03-29T19:15:32.446Z,73.83
2023-03-29T19:17:59.138Z,74.75
2023-03-29T19:20:25.713Z,74.03
2023-03-29T19:22:52.639Z,74.04
2023-03-29T19:25:19.460Z,73.98
2023-03-29T19:27:46.383Z,73.64
2023-03-29T19:30:14.227Z,74.23
2023-03-29T19:32:40.726Z,73.77
2023-03-29T19:35:09.831Z,72.88
2023-03-29T19:37:36.504Z,73.26
2023-03-29T19:40:06.446Z,73.10
2023-03-29T19:42:36.194Z,73.00
2023-03-29T19:45:03.932Z,73.40
2023-03-29T19:47:30.573Z,72.64
2023-03-29T19:49:58.530Z,73.19
2023-03-29T19:52:27.780Z,72.95
2023-03-29T19:54:58.537Z,73.35
2023-03-29T19:57:39.212Z,73.01
2023-03-29T20:00:14.113Z,73.69
2023-03-29T20:02:42.365Z,72.71
2023-03-29T20:05:09.215Z,72.76
2023-03-29T20:07:36.378Z,73.06
2023-03-29T20:10:02.951Z,72.89
2023-03-29T20:12:29.432Z,73.09
2023-03-29T20:14:55.907Z,73.19
2023-03-29T20:17:22.388Z,73.74
2023-03-29T20:19:48.801Z,73.66
2023-03-29T20:22:15.268Z,73.43
2023-03-29T20:24:41.714Z,72.65
2023-03-29T20:27:08.656Z,73.00
2023-03-29T20:29:35.482Z,73.08
2023-03-29T20:32:02.146Z,72.76
2023-03-29T20:34:28.850Z,72.82
2023-03-29T20:36:55.522Z,72.84
2023-03-29T20:39:25.639Z,73.61
2023-03-29T20:41:52.420Z,73.24
2023-03-29T20:44:18.919Z,73.27
2023-03-29T20:47:02.090Z,72.87
2023-03-29T20:49:42.127Z,73.00
2023-03-29T20:52:18.035Z,73.96
2023-03-29T20:54:45.257Z,73.23
2023-03-29T20:57:14.619Z,73.12
2023-03-29T20:59:42.846Z,73.79
2023-03-29T21:02:16.582Z,74.33
2023-03-29T21:04:44.109Z,74.20
2023-03-29T21:07:11.105Z,74.29
2023-03-29T21:09:37.726Z,74.14
2023-03-29T21:12:04.208Z,74.99
2023-03-29T21:14:33.243Z,74.69
2023-03-29T21:16:59.932Z,74.80
2023-03-29T21:19:26.554Z,75.14
2023-03-29T21:21:54.976Z,75.35
2023-03-29T21:24:21.790Z,74.98
2023-03-29T21:26:48.266Z,75.32
2023-03-29T21:29:14.754Z,76.22
2023-03-29T21:31:41.520Z,76.00
2023-03-29T21:34:08.100Z,75.77
2023-03-29T21:36:35.006Z,75.73
2023-03-29T21:39:01.470Z,75.79
2023-03-29T21:41:27.927Z,75.85
2023-03-29T21:43:54.384Z,76.43
2023-03-29T21:46:20.997Z,76.31
2023-03-29T21:48:47.730Z,76.24
2023-03-29T21:51:14.245Z,76.50
2023-03-29T21:53:41.022Z,76.66
2023-03-29T21:56:08.348Z,76.75
2023-03-29T21:58:34.922Z,77.82
2023-03-29T22:01:03.807Z,77.69
2023-03-29T22:03:31.343Z,76.06
2023-03-29T22:05:59.933Z,75.88
2023-03-29T22:08:26.739Z,75.70
2023-03-29T22:10:58.142Z,75.24
2023-03-29T22:13:26.066Z,74.90
2023-03-29T22:16:00.306Z,75.33
2023-03-29T22:18:30.070Z,74.81
2023-03-29T22:20:57.122Z,74.66
2023-03-29T22:23:24.877Z,74.32
2023-03-29T22:25:51.467Z,75.08
2023-03-29T22:28:18.040Z,74.27
2023-03-29T22:30:44.565Z,73.18
2023-03-29T22:33:11.105Z,73.18
2023-03-29T22:35:37.603Z,72.76
2023-03-29T22:38:04.256Z,72.79
2023-03-29T22:40:33.170Z,72.73
2023-03-29T22:42:59.906Z,72.17
2023-03-29T22:45:26.309Z,71.79
2023-03-29T22:47:52.774Z,72.05
2023-03-29T22:50:19.281Z,72.10
2023-03-29T22:52:46.012Z,72.10
2023-03-29T22:55:12.456Z,71.64
2023-03-29T22:57:38.876Z,71.14
2023-03-29T23:00:09.031Z,70.56
2023-03-29T23:02:36.505Z,71.09
2023-03-29T23:05:02.987Z,71.22
2023-03-29T23:07:29.528Z,70.29
2023-03-29T23:09:56.206Z,70.80
2023-03-29T23:12:24.180Z,70.82
2023-03-29T23:14:52.860Z,70.54
2023-03-29T23:17:19.318Z,70.97
2023-03-29T23:19:45.901Z,69.74
2023-03-29T23:22:12.285Z,70.17
2023-03-29T23:24:38.774Z,70.00
2023-03-29T23:27:05.552Z,69.69
2023-03-29T23:29:32.064Z,70.29
2023-03-29T23:31:59.579Z,70.52
2023-03-29T23:34:25.991Z,69.54
2023-03-29T23:36:52.416Z,70.77
2023-03-29T23:39:18.855Z,70.96
2023-03-29T23:41:45.547Z,70.90
2023-03-29T23:44:11.988Z,70.68
2023-03-29T23:46:38.479Z,71.00
2023-03-29T23:49:04.957Z,71.22
2023-03-29T23:51:31.365Z,71.42
2023-03-29T23:53:57.804Z,71.64
2023-03-29T23:56:24.320Z,71.80
2023-03-29T23:58:51.026Z,71.85
